sensor_id;sensor_type;location;lat;lon;timestamp;pressure;altitude;pressure_sealevel;temperature;humidity
75998;BME280;64685;48.762;44.822;2023-03-01T00:01:20;101205.69;;;0.33;65.56
75998;BME280;64685;48.762;44.822;2023-03-01T00:06:24;101194.81;;;0.27;66.07
75998;BME280;64685;48.762;44.822;2023-03-01T00:11:29;101189.84;;;0.24;66.29
75998;BME280;64685;48.762;44.822;2023-03-01T00:16:37;101189.50;;;0.20;66.50
75998;BME280;64685;48.762;44.822;2023-03-01T00:21:41;101186.66;;;0.15;66.70
75998;BME280;64685;48.762;44.822;2023-03-01T00:26:44;101180.06;;;0.16;66.61
75998;BME280;64685;48.762;44.822;2023-03-01T00:31:47;101162.16;;;0.14;66.58
75998;BME280;64685;48.762;44.822;2023-03-01T00:36:49;101167.66;;;0.14;66.73
75998;BME280;64685;48.762;44.822;2023-03-01T00:41:52;101164.34;;;0.12;66.66
75998;BME280;64685;48.762;44.822;2023-03-01T00:46:54;101158.22;;;0.10;66.62
75998;BME280;64685;48.762;44.822;2023-03-01T00:51:57;101145.50;;;0.04;66.88
75998;BME280;64685;48.762;44.822;2023-03-01T00:56:59;101156.81;;;0.07;66.75
75998;BME280;64685;48.762;44.822;2023-03-01T01:02:02;101143.88;;;0.19;66.73
75998;BME280;64685;48.762;44.822;2023-03-01T01:07:04;101141.22;;;0.24;66.58
75998;BME280;64685;48.762;44.822;2023-03-01T01:12:07;101147.44;;;0.31;66.63
75998;BME280;64685;48.762;44.822;2023-03-01T01:17:10;101141.94;;;0.31;66.56
75998;BME280;64685;48.762;44.822;2023-03-01T01:22:12;101151.09;;;0.37;66.08
75998;BME280;64685;48.762;44.822;2023-03-01T01:27:15;101146.69;;;0.36;66.04
75998;BME280;64685;48.762;44.822;2023-03-01T01:32:17;101151.59;;;0.34;65.98
75998;BME280;64685;48.762;44.822;2023-03-01T01:37:20;101140.84;;;0.32;65.87
75998;BME280;64685;48.762;44.822;2023-03-01T01:42:23;101127.59;;;0.29;65.82
75998;BME280;64685;48.762;44.822;2023-03-01T01:47:26;101128.56;;;0.23;65.82
75998;BME280;64685;48.762;44.822;2023-03-01T01:52:34;101103.97;;;0.28;65.71
75998;BME280;64685;48.762;44.822;2023-03-01T01:58:01;101116.59;;;0.29;66.05
75998;BME280;64685;48.762;44.822;2023-03-01T02:03:12;101111.97;;;0.30;66.00
75998;BME280;64685;48.762;44.822;2023-03-01T02:08:21;101103.28;;;0.21;65.88
75998;BME280;64685;48.762;44.822;2023-03-01T02:13:26;101089.22;;;0.18;66.03
75998;BME280;64685;48.762;44.822;2023-03-01T02:18:29;101087.38;;;0.07;66.00
75998;BME280;64685;48.762;44.822;2023-03-01T02:23:32;101083.19;;;0.04;65.98
75998;BME280;64685;48.762;44.822;2023-03-01T02:28:37;101098.38;;;-0.05;65.87
75998;BME280;64685;48.762;44.822;2023-03-01T02:33:41;101083.47;;;-0.09;65.41
75998;BME280;64685;48.762;44.822;2023-03-01T02:38:45;101076.81;;;-0.13;65.37
75998;BME280;64685;48.762;44.822;2023-03-01T02:43:49;101081.81;;;-0.10;65.15
75998;BME280;64685;48.762;44.822;2023-03-01T02:48:54;101078.38;;;-0.17;65.20
75998;BME280;64685;48.762;44.822;2023-03-01T02:54:22;101060.81;;;-0.16;65.46
75998;BME280;64685;48.762;44.822;2023-03-01T02:59:31;101053.69;;;-0.17;65.27
75998;BME280;64685;48.762;44.822;2023-03-01T03:04:42;101064.78;;;-0.23;65.37
75998;BME280;64685;48.762;44.822;2023-03-01T03:09:45;101072.31;;;-0.18;65.44
75998;BME280;64685;48.762;44.822;2023-03-01T03:14:47;101071.13;;;-0.22;65.47
75998;BME280;64685;48.762;44.822;2023-03-01T03:19:51;101078.38;;;-0.17;65.57
75998;BME280;64685;48.762;44.822;2023-03-01T03:24:53;101074.09;;;-0.24;65.58
75998;BME280;64685;48.762;44.822;2023-03-01T03:29:56;101039.63;;;-0.20;65.58
75998;BME280;64685;48.762;44.822;2023-03-01T03:34:58;101045.22;;;-0.15;65.44
75998;BME280;64685;48.762;44.822;2023-03-01T03:40:01;101029.19;;;-0.07;65.43
75998;BME280;64685;48.762;44.822;2023-03-01T03:45:04;101033.81;;;-0.07;65.37
75998;BME280;64685;48.762;44.822;2023-03-01T03:50:08;101042.25;;;0.03;65.39
75998;BME280;64685;48.762;44.822;2023-03-01T03:55:11;101035.44;;;0.05;65.26
75998;BME280;64685;48.762;44.822;2023-03-01T04:00:14;101025.03;;;0.07;65.08
75998;BME280;64685;48.762;44.822;2023-03-01T04:05:18;101038.13;;;0.17;65.07
75998;BME280;64685;48.762;44.822;2023-03-01T04:10:20;101045.28;;;0.18;64.73
75998;BME280;64685;48.762;44.822;2023-03-01T04:15:24;101047.22;;;0.34;64.17
75998;BME280;64685;48.762;44.822;2023-03-01T04:20:30;101053.28;;;0.52;64.14
75998;BME280;64685;48.762;44.822;2023-03-01T04:25:32;101055.03;;;0.58;64.06
75998;BME280;64685;48.762;44.822;2023-03-01T04:30:36;101042.53;;;0.84;63.62
75998;BME280;64685;48.762;44.822;2023-03-01T04:35:39;101045.84;;;1.62;62.80
75998;BME280;64685;48.762;44.822;2023-03-01T04:40:42;101057.28;;;2.86;60.85
75998;BME280;64685;48.762;44.822;2023-03-01T04:45:45;101041.63;;;3.38;59.37
75998;BME280;64685;48.762;44.822;2023-03-01T04:50:47;101054.56;;;3.28;58.74
75998;BME280;64685;48.762;44.822;2023-03-01T04:55:50;101046.38;;;2.65;58.81
75998;BME280;64685;48.762;44.822;2023-03-01T05:00:53;101046.59;;;2.58;58.39
75998;BME280;64685;48.762;44.822;2023-03-01T05:05:58;101044.69;;;2.64;58.02
75998;BME280;64685;48.762;44.822;2023-03-01T05:11:01;101021.50;;;4.39;56.61
75998;BME280;64685;48.762;44.822;2023-03-01T05:16:05;101034.81;;;4.77;54.96
75998;BME280;64685;48.762;44.822;2023-03-01T05:21:11;101039.19;;;4.58;54.76
75998;BME280;64685;48.762;44.822;2023-03-01T05:26:15;101041.69;;;4.40;54.46
75998;BME280;64685;48.762;44.822;2023-03-01T05:31:34;101028.41;;;4.32;54.43
75998;BME280;64685;48.762;44.822;2023-03-01T05:36:37;101038.63;;;4.21;54.68
75998;BME280;64685;48.762;44.822;2023-03-01T05:41:40;101035.81;;;4.01;54.07
75998;BME280;64685;48.762;44.822;2023-03-01T05:46:43;101028.91;;;3.94;54.79
75998;BME280;64685;48.762;44.822;2023-03-01T05:51:50;101041.78;;;3.73;54.52
75998;BME280;64685;48.762;44.822;2023-03-01T05:56:53;101016.63;;;3.70;54.74
75998;BME280;64685;48.762;44.822;2023-03-01T06:01:55;101033.03;;;3.91;54.31
75998;BME280;64685;48.762;44.822;2023-03-01T06:06:58;101029.47;;;4.16;53.83
75998;BME280;64685;48.762;44.822;2023-03-01T06:12:00;101036.97;;;4.20;54.12
75998;BME280;64685;48.762;44.822;2023-03-01T06:17:03;101036.69;;;4.22;53.62
75998;BME280;64685;48.762;44.822;2023-03-01T06:22:05;101040.81;;;4.09;53.82
75998;BME280;64685;48.762;44.822;2023-03-01T06:27:08;101034.66;;;3.87;54.46
75998;BME280;64685;48.762;44.822;2023-03-01T06:32:11;101023.00;;;3.70;54.85
75998;BME280;64685;48.762;44.822;2023-03-01T06:37:13;101018.59;;;3.79;54.88
75998;BME280;64685;48.762;44.822;2023-03-01T06:42:16;101020.47;;;3.59;54.94
75998;BME280;64685;48.762;44.822;2023-03-01T06:47:18;101029.34;;;3.71;55.07
75998;BME280;64685;48.762;44.822;2023-03-01T06:52:21;101018.28;;;3.71;54.89
75998;BME280;64685;48.762;44.822;2023-03-01T06:57:23;101015.09;;;3.94;54.90
75998;BME280;64685;48.762;44.822;2023-03-01T07:02:26;101018.84;;;3.63;54.77
75998;BME280;64685;48.762;44.822;2023-03-01T07:07:28;101010.56;;;3.68;55.11
75998;BME280;64685;48.762;44.822;2023-03-01T07:12:31;101006.50;;;3.95;54.76
75998;BME280;64685;48.762;44.822;2023-03-01T07:17:33;101002.09;;;3.94;54.69
75998;BME280;64685;48.762;44.822;2023-03-01T07:22:36;100994.06;;;3.98;54.57
75998;BME280;64685;48.762;44.822;2023-03-01T07:27:38;100993.84;;;4.09;54.35
75998;BME280;64685;48.762;44.822;2023-03-01T07:32:41;100997.13;;;4.06;54.71
75998;BME280;64685;48.762;44.822;2023-03-01T07:37:44;100993.00;;;4.14;54.48
75998;BME280;64685;48.762;44.822;2023-03-01T07:42:46;100999.34;;;3.99;54.67
75998;BME280;64685;48.762;44.822;2023-03-01T07:47:50;101001.25;;;3.89;55.22
75998;BME280;64685;48.762;44.822;2023-03-01T07:52:53;100993.81;;;4.04;55.04
75998;BME280;64685;48.762;44.822;2023-03-01T07:57:56;100986.91;;;4.02;55.02
75998;BME280;64685;48.762;44.822;2023-03-01T08:03:00;100978.63;;;4.02;54.74
75998;BME280;64685;48.762;44.822;2023-03-01T08:08:06;100974.72;;;3.93;55.03
75998;BME280;64685;48.762;44.822;2023-03-01T08:13:09;100962.63;;;4.19;54.62
75998;BME280;64685;48.762;44.822;2023-03-01T08:18:11;100957.09;;;4.34;54.68
75998;BME280;64685;48.762;44.822;2023-03-01T08:23:15;100945.75;;;4.45;54.38
75998;BME280;64685;48.762;44.822;2023-03-01T08:28:18;100939.63;;;4.78;54.24
75998;BME280;64685;48.762;44.822;2023-03-01T08:33:20;100922.16;;;4.93;53.74
75998;BME280;64685;48.762;44.822;2023-03-01T08:38:23;100921.38;;;4.82;53.56
75998;BME280;64685;48.762;44.822;2023-03-01T08:43:25;100924.69;;;4.79;54.09
75998;BME280;64685;48.762;44.822;2023-03-01T08:48:28;100909.72;;;4.85;53.99
75998;BME280;64685;48.762;44.822;2023-03-01T08:53:31;100906.19;;;4.60;53.96
75998;BME280;64685;48.762;44.822;2023-03-01T08:58:33;100899.25;;;4.77;54.09
75998;BME280;64685;48.762;44.822;2023-03-01T09:03:36;100887.69;;;4.45;54.19
75998;BME280;64685;48.762;44.822;2023-03-01T09:08:42;100876.63;;;4.55;54.49
75998;BME280;64685;48.762;44.822;2023-03-01T09:13:47;100862.50;;;4.67;53.74
75998;BME280;64685;48.762;44.822;2023-03-01T09:18:52;100856.25;;;5.00;53.76
75998;BME280;64685;48.762;44.822;2023-03-01T09:23:56;100855.41;;;5.09;53.43
75998;BME280;64685;48.762;44.822;2023-03-01T09:28:59;100857.84;;;5.16;53.37
75998;BME280;64685;48.762;44.822;2023-03-01T09:34:02;100844.41;;;4.94;53.56
75998;BME280;64685;48.762;44.822;2023-03-01T09:39:05;100840.53;;;4.95;53.45
75998;BME280;64685;48.762;44.822;2023-03-01T09:49:34;100828.69;;;4.80;53.34
75998;BME280;64685;48.762;44.822;2023-03-01T09:54:37;100823.81;;;4.52;54.19
75998;BME280;64685;48.762;44.822;2023-03-01T10:00:11;100817.44;;;4.51;54.17
75998;BME280;64685;48.762;44.822;2023-03-01T10:05:34;100794.50;;;4.46;54.50
75998;BME280;64685;48.762;44.822;2023-03-01T10:10:42;100794.16;;;4.62;54.24
75998;BME280;64685;48.762;44.822;2023-03-01T10:16:06;100793.50;;;4.90;54.59
75998;BME280;64685;48.762;44.822;2023-03-01T10:21:15;100776.69;;;4.77;54.38
75998;BME280;64685;48.762;44.822;2023-03-01T10:26:38;100779.66;;;4.95;54.32
75998;BME280;64685;48.762;44.822;2023-03-01T10:31:52;100780.09;;;5.12;53.95
75998;BME280;64685;48.762;44.822;2023-03-01T10:36:58;100773.47;;;5.08;53.56
75998;BME280;64685;48.762;44.822;2023-03-01T10:42:05;100783.28;;;4.91;53.95
75998;BME280;64685;48.762;44.822;2023-03-01T10:47:27;100770.81;;;4.93;54.21
75998;BME280;64685;48.762;44.822;2023-03-01T10:52:36;100769.22;;;4.82;55.01
75998;BME280;64685;48.762;44.822;2023-03-01T10:57:39;100765.09;;;4.70;54.82
75998;BME280;64685;48.762;44.822;2023-03-01T11:02:45;100764.59;;;4.63;55.32
75998;BME280;64685;48.762;44.822;2023-03-01T11:07:57;100756.81;;;4.70;55.34
75998;BME280;64685;48.762;44.822;2023-03-01T11:13:11;100749.91;;;4.67;55.50
75998;BME280;64685;48.762;44.822;2023-03-01T11:18:23;100750.97;;;4.76;55.84
75998;BME280;64685;48.762;44.822;2023-03-01T11:23:43;100746.50;;;4.80;56.23
75998;BME280;64685;48.762;44.822;2023-03-01T11:28:51;100744.66;;;4.61;56.62
75998;BME280;64685;48.762;44.822;2023-03-01T11:34:31;100742.47;;;4.58;56.87
75998;BME280;64685;48.762;44.822;2023-03-01T11:39:47;100749.44;;;4.45;57.00
75998;BME280;64685;48.762;44.822;2023-03-01T11:44:55;100743.88;;;4.55;56.98
75998;BME280;64685;48.762;44.822;2023-03-01T12:01:29;100750.84;;;4.33;57.38
75998;BME280;64685;48.762;44.822;2023-03-01T12:06:44;100749.19;;;4.32;57.71
75998;BME280;64685;48.762;44.822;2023-03-01T12:39:11;100714.34;;;4.41;57.84
75998;BME280;64685;48.762;44.822;2023-03-01T12:44:38;100710.19;;;4.48;57.59
75998;BME280;64685;48.762;44.822;2023-03-01T12:49:55;100706.81;;;4.56;57.52
75998;BME280;64685;48.762;44.822;2023-03-01T12:55:01;100707.34;;;4.58;57.35
75998;BME280;64685;48.762;44.822;2023-03-01T13:00:37;100709.81;;;4.65;57.48
75998;BME280;64685;48.762;44.822;2023-03-01T13:11:06;100724.75;;;4.64;57.23
75998;BME280;64685;48.762;44.822;2023-03-01T13:21:32;100714.59;;;4.44;57.49
75998;BME280;64685;48.762;44.822;2023-03-01T13:37:28;100734.81;;;4.45;57.85
75998;BME280;64685;48.762;44.822;2023-03-01T13:42:40;100747.81;;;4.34;58.15
75998;BME280;64685;48.762;44.822;2023-03-01T13:47:43;100745.63;;;4.36;58.28
75998;BME280;64685;48.762;44.822;2023-03-01T13:52:59;100736.22;;;4.32;57.99
75998;BME280;64685;48.762;44.822;2023-03-01T13:58:13;100745.38;;;4.18;58.68
75998;BME280;64685;48.762;44.822;2023-03-01T14:03:18;100739.03;;;4.12;58.90
75998;BME280;64685;48.762;44.822;2023-03-01T14:08:24;100734.63;;;4.01;58.87
75998;BME280;64685;48.762;44.822;2023-03-01T14:13:36;100735.75;;;3.95;59.15
75998;BME280;64685;48.762;44.822;2023-03-01T14:24:01;100752.63;;;3.89;59.29
75998;BME280;64685;48.762;44.822;2023-03-01T14:29:03;100764.25;;;3.66;60.24
75998;BME280;64685;48.762;44.822;2023-03-01T14:34:06;100761.19;;;3.67;60.55
75998;BME280;64685;48.762;44.822;2023-03-01T14:39:20;100768.09;;;3.65;60.98
75998;BME280;64685;48.762;44.822;2023-03-01T14:44:25;100772.81;;;3.64;60.74
75998;BME280;64685;48.762;44.822;2023-03-01T14:49:30;100781.94;;;3.55;61.70
75998;BME280;64685;48.762;44.822;2023-03-01T14:54:44;100792.13;;;3.44;61.81
75998;BME280;64685;48.762;44.822;2023-03-01T14:59:49;100808.13;;;3.47;62.22
75998;BME280;64685;48.762;44.822;2023-03-01T15:04:55;100807.03;;;3.48;61.73
75998;BME280;64685;48.762;44.822;2023-03-01T15:10:07;100815.06;;;3.55;61.71
75998;BME280;64685;48.762;44.822;2023-03-01T15:20:27;100839.91;;;3.55;62.45
75998;BME280;64685;48.762;44.822;2023-03-01T15:25:32;100848.72;;;3.47;61.97
75998;BME280;64685;48.762;44.822;2023-03-01T15:30:36;100842.09;;;3.53;62.20
75998;BME280;64685;48.762;44.822;2023-03-01T15:35:43;100850.66;;;3.66;61.78
75998;BME280;64685;48.762;44.822;2023-03-01T15:40:50;100874.69;;;3.61;61.65
75998;BME280;64685;48.762;44.822;2023-03-01T15:45:56;100882.69;;;3.52;61.52
75998;BME280;64685;48.762;44.822;2023-03-01T15:51:03;100874.13;;;3.54;61.80
75998;BME280;64685;48.762;44.822;2023-03-01T15:56:05;100883.50;;;3.53;61.16
75998;BME280;64685;48.762;44.822;2023-03-01T16:01:14;100887.09;;;3.53;61.28
75998;BME280;64685;48.762;44.822;2023-03-01T16:06:17;100896.22;;;3.49;61.53
75998;BME280;64685;48.762;44.822;2023-03-01T16:11:20;100898.69;;;3.50;60.93
75998;BME280;64685;48.762;44.822;2023-03-01T16:16:23;100895.91;;;3.50;61.22
75998;BME280;64685;48.762;44.822;2023-03-01T16:21:25;100908.63;;;3.51;61.10
75998;BME280;64685;48.762;44.822;2023-03-01T16:26:28;100916.06;;;3.41;61.12
75998;BME280;64685;48.762;44.822;2023-03-01T16:31:31;100909.69;;;3.45;61.16
75998;BME280;64685;48.762;44.822;2023-03-01T16:36:34;100922.09;;;3.33;61.05
75998;BME280;64685;48.762;44.822;2023-03-01T16:41:36;100940.09;;;3.40;61.68
75998;BME280;64685;48.762;44.822;2023-03-01T16:46:41;100976.50;;;2.49;62.71
75998;BME280;64685;48.762;44.822;2023-03-01T16:51:44;100981.19;;;2.17;62.55
75998;BME280;64685;48.762;44.822;2023-03-01T16:56:47;100987.41;;;2.03;62.49
75998;BME280;64685;48.762;44.822;2023-03-01T17:01:49;100971.22;;;1.85;62.37
75998;BME280;64685;48.762;44.822;2023-03-01T17:06:52;100989.00;;;1.72;62.26
75998;BME280;64685;48.762;44.822;2023-03-01T17:11:54;100985.72;;;1.75;61.48
75998;BME280;64685;48.762;44.822;2023-03-01T17:16:57;100993.09;;;1.70;61.04
75998;BME280;64685;48.762;44.822;2023-03-01T17:22:02;100998.66;;;1.53;60.26
75998;BME280;64685;48.762;44.822;2023-03-01T17:27:05;101004.94;;;1.70;60.79
75998;BME280;64685;48.762;44.822;2023-03-01T17:32:08;101006.22;;;1.63;60.63
75998;BME280;64685;48.762;44.822;2023-03-01T17:37:11;101001.16;;;1.55;59.60
75998;BME280;64685;48.762;44.822;2023-03-01T17:42:14;101009.97;;;1.52;59.78
75998;BME280;64685;48.762;44.822;2023-03-01T17:47:16;101019.09;;;1.57;58.73
75998;BME280;64685;48.762;44.822;2023-03-01T17:52:19;101020.06;;;1.46;58.31
75998;BME280;64685;48.762;44.822;2023-03-01T17:57:24;101032.47;;;1.49;58.22
75998;BME280;64685;48.762;44.822;2023-03-01T18:02:27;101042.06;;;1.46;57.85
75998;BME280;64685;48.762;44.822;2023-03-01T18:07:30;101055.19;;;1.39;58.10
75998;BME280;64685;48.762;44.822;2023-03-01T18:12:32;101050.56;;;1.45;57.38
75998;BME280;64685;48.762;44.822;2023-03-01T18:17:34;101060.88;;;1.33;57.31
75998;BME280;64685;48.762;44.822;2023-03-01T18:22:38;101076.09;;;1.19;57.10
75998;BME280;64685;48.762;44.822;2023-03-01T18:27:40;101076.41;;;1.22;56.83
75998;BME280;64685;48.762;44.822;2023-03-01T18:32:43;101086.53;;;1.00;57.21
75998;BME280;64685;48.762;44.822;2023-03-01T18:37:46;101098.19;;;0.74;57.34
75998;BME280;64685;48.762;44.822;2023-03-01T18:42:48;101090.84;;;0.63;57.81
75998;BME280;64685;48.762;44.822;2023-03-01T18:47:51;101093.84;;;0.45;58.35
75998;BME280;64685;48.762;44.822;2023-03-01T18:52:53;101118.28;;;0.30;58.67
75998;BME280;64685;48.762;44.822;2023-03-01T18:57:56;101122.00;;;0.24;59.19
75998;BME280;64685;48.762;44.822;2023-03-01T19:02:59;101128.47;;;0.18;59.85
75998;BME280;64685;48.762;44.822;2023-03-01T19:08:05;101128.53;;;0.07;60.35
75998;BME280;64685;48.762;44.822;2023-03-01T19:13:07;101123.75;;;0.02;60.67
75998;BME280;64685;48.762;44.822;2023-03-01T19:18:09;101135.47;;;-0.02;61.12
75998;BME280;64685;48.762;44.822;2023-03-01T19:23:12;101144.47;;;-0.07;61.38
75998;BME280;64685;48.762;44.822;2023-03-01T19:28:14;101153.44;;;-0.11;61.62
75998;BME280;64685;48.762;44.822;2023-03-01T19:33:17;101155.19;;;-0.05;61.85
75998;BME280;64685;48.762;44.822;2023-03-01T19:38:19;101165.13;;;-0.16;61.75
75998;BME280;64685;48.762;44.822;2023-03-01T19:43:22;101173.69;;;-0.12;61.92
75998;BME280;64685;48.762;44.822;2023-03-01T19:48:25;101177.28;;;-0.12;62.29
75998;BME280;64685;48.762;44.822;2023-03-01T19:53:28;101186.38;;;-0.11;62.36
75998;BME280;64685;48.762;44.822;2023-03-01T19:58:31;101182.19;;;-0.13;62.44
75998;BME280;64685;48.762;44.822;2023-03-01T20:03:34;101189.34;;;-0.24;63.08
75998;BME280;64685;48.762;44.822;2023-03-01T20:08:37;101191.97;;;-0.29;63.17
75998;BME280;64685;48.762;44.822;2023-03-01T20:13:40;101201.53;;;-0.32;63.60
75998;BME280;64685;48.762;44.822;2023-03-01T20:18:43;101209.41;;;-0.35;64.16
75998;BME280;64685;48.762;44.822;2023-03-01T20:23:46;101211.09;;;-0.45;64.44
75998;BME280;64685;48.762;44.822;2023-03-01T20:28:50;101222.66;;;-0.43;64.51
75998;BME280;64685;48.762;44.822;2023-03-01T20:33:54;101217.03;;;-0.48;64.42
75998;BME280;64685;48.762;44.822;2023-03-01T20:38:57;101218.63;;;-0.52;64.57
75998;BME280;64685;48.762;44.822;2023-03-01T20:43:59;101231.47;;;-0.53;64.77
75998;BME280;64685;48.762;44.822;2023-03-01T20:49:03;101230.63;;;-0.53;64.53
75998;BME280;64685;48.762;44.822;2023-03-01T20:54:06;101244.47;;;-0.48;64.50
75998;BME280;64685;48.762;44.822;2023-03-01T20:59:10;101250.91;;;-0.54;64.36
75998;BME280;64685;48.762;44.822;2023-03-01T21:04:13;101246.03;;;-0.52;64.25
75998;BME280;64685;48.762;44.822;2023-03-01T21:09:15;101253.53;;;-0.59;64.07
75998;BME280;64685;48.762;44.822;2023-03-01T21:14:18;101264.50;;;-0.59;63.97
75998;BME280;64685;48.762;44.822;2023-03-01T21:19:22;101262.25;;;-0.62;63.90
75998;BME280;64685;48.762;44.822;2023-03-01T21:24:26;101262.47;;;-0.64;63.55
75998;BME280;64685;48.762;44.822;2023-03-01T21:29:29;101270.13;;;-0.66;63.63
75998;BME280;64685;48.762;44.822;2023-03-01T21:34:32;101273.53;;;-0.70;63.32
75998;BME280;64685;48.762;44.822;2023-03-01T21:39:35;101297.41;;;-0.71;62.79
75998;BME280;64685;48.762;44.822;2023-03-01T21:44:37;101296.91;;;-0.68;62.25
75998;BME280;64685;48.762;44.822;2023-03-01T21:49:40;101292.63;;;-0.75;61.55
75998;BME280;64685;48.762;44.822;2023-03-01T21:54:43;101295.91;;;-0.85;61.11
75998;BME280;64685;48.762;44.822;2023-03-01T21:59:46;101298.56;;;-0.78;60.11
75998;BME280;64685;48.762;44.822;2023-03-01T22:04:51;101297.34;;;-0.82;59.44
75998;BME280;64685;48.762;44.822;2023-03-01T22:09:58;101313.00;;;-0.83;59.22
75998;BME280;64685;48.762;44.822;2023-03-01T22:15:01;101320.56;;;-0.96;58.91
75998;BME280;64685;48.762;44.822;2023-03-01T22:20:04;101322.84;;;-0.93;58.40
75998;BME280;64685;48.762;44.822;2023-03-01T22:25:08;101335.44;;;-1.04;58.21
75998;BME280;64685;48.762;44.822;2023-03-01T22:30:12;101331.25;;;-1.06;57.87
75998;BME280;64685;48.762;44.822;2023-03-01T22:35:15;101325.03;;;-1.13;57.91
75998;BME280;64685;48.762;44.822;2023-03-01T22:40:17;101318.94;;;-1.15;57.84
75998;BME280;64685;48.762;44.822;2023-03-01T22:45:20;101311.41;;;-1.20;57.21
75998;BME280;64685;48.762;44.822;2023-03-01T22:50:22;101317.63;;;-1.13;56.91
75998;BME280;64685;48.762;44.822;2023-03-01T22:55:26;101313.94;;;-1.18;56.81
75998;BME280;64685;48.762;44.822;2023-03-01T23:00:28;101323.09;;;-1.24;57.08
75998;BME280;64685;48.762;44.822;2023-03-01T23:05:31;101312.50;;;-1.21;57.24
75998;BME280;64685;48.762;44.822;2023-03-01T23:10:33;101325.34;;;-1.21;57.03
75998;BME280;64685;48.762;44.822;2023-03-01T23:15:41;101329.00;;;-1.27;57.21
75998;BME280;64685;48.762;44.822;2023-03-01T23:20:45;101327.13;;;-1.27;56.86
75998;BME280;64685;48.762;44.822;2023-03-01T23:25:54;101331.16;;;-1.29;56.55
75998;BME280;64685;48.762;44.822;2023-03-01T23:30:59;101338.16;;;-1.33;56.87
75998;BME280;64685;48.762;44.822;2023-03-01T23:36:06;101336.81;;;-1.42;56.77
75998;BME280;64685;48.762;44.822;2023-03-01T23:41:10;101335.97;;;-1.43;56.81
75998;BME280;64685;48.762;44.822;2023-03-01T23:46:15;101332.00;;;-1.47;56.87
75998;BME280;64685;48.762;44.822;2023-03-01T23:51:18;101337.28;;;-1.63;57.27
75998;BME280;64685;48.762;44.822;2023-03-01T23:56:22;101342.81;;;-1.70;57.16
